createdAt,value
2018-05-04T00:00:14.142Z,0
2018-05-04T00:01:14.853Z,0
2018-05-04T00:02:15.571Z,0
2018-05-04T00:03:16.286Z,0
2018-05-04T00:04:17.007Z,0
2018-05-04T00:05:17.718Z,0
2018-05-04T00:06:18.427Z,0
2018-05-04T00:07:19.135Z,0
2018-05-04T00:08:19.842Z,0
2018-05-04T00:09:20.551Z,0
2018-05-04T00:10:21.261Z,0
2018-05-04T00:11:21.974Z,0
2018-05-04T00:12:22.680Z,0
2018-05-04T00:13:23.389Z,0
2018-05-04T00:14:24.099Z,0
2018-05-04T00:15:24.817Z,0
2018-05-04T00:16:25.528Z,0
2018-05-04T00:17:26.239Z,0
2018-05-04T00:18:26.956Z,0
2018-05-04T00:19:27.668Z,0
2018-05-04T00:20:28.373Z,0
2018-05-04T00:21:29.092Z,0
2018-05-04T00:22:29.801Z,0
2018-05-04T00:23:30.522Z,0
2018-05-04T00:24:31.232Z,0
2018-05-04T00:25:31.941Z,0
2018-05-04T00:26:32.662Z,0
2018-05-04T00:27:33.374Z,0
2018-05-04T00:28:34.082Z,0
2018-05-04T00:29:34.792Z,0
2018-05-04T00:30:35.510Z,0
2018-05-04T00:31:36.222Z,0
2018-05-04T00:32:36.929Z,0
2018-05-04T00:33:37.636Z,0
2018-05-04T00:34:38.342Z,0
2018-05-04T00:35:39.061Z,0
2018-05-04T00:36:39.784Z,0
2018-05-04T00:37:40.494Z,0
2018-05-04T00:38:41.204Z,0
2018-05-04T00:39:41.914Z,0
2018-05-04T00:40:42.633Z,0
2018-05-04T00:41:43.343Z,0
2018-05-04T00:42:44.052Z,0
2018-05-04T00:43:44.760Z,0
2018-05-04T00:44:45.490Z,0
2018-05-04T00:45:46.180Z,0
2018-05-04T00:46:46.890Z,0
2018-05-04T00:47:47.608Z,0
2018-05-04T00:48:48.329Z,0
2018-05-04T00:49:49.046Z,0
2018-05-04T00:50:49.751Z,0
2018-05-04T00:51:50.460Z,0
2018-05-04T00:52:51.167Z,0
2018-05-04T00:53:51.874Z,0
2018-05-04T00:54:52.582Z,0
2018-05-04T00:55:53.293Z,0
2018-05-04T00:56:53.999Z,0
2018-05-04T00:57:54.708Z,0
2018-05-04T00:58:55.418Z,0
2018-05-04T00:59:56.128Z,0
2018-05-04T01:00:56.838Z,0
2018-05-04T01:01:57.548Z,0
2018-05-04T01:02:58.256Z,0
2018-05-04T01:03:58.967Z,0
2018-05-04T01:04:59.680Z,0
2018-05-04T01:06:00.388Z,0
2018-05-04T01:07:01.097Z,0
2018-05-04T01:08:01.806Z,0
2018-05-04T01:09:02.514Z,0
2018-05-04T01:10:03.221Z,0
2018-05-04T01:11:03.931Z,0
2018-05-04T01:12:04.640Z,0
2018-05-04T01:13:05.349Z,0
2018-05-04T01:14:06.058Z,0
2018-05-04T01:15:06.767Z,0
2018-05-04T01:16:07.474Z,0
2018-05-04T01:17:08.181Z,0
2018-05-04T01:18:08.888Z,0
2018-05-04T01:19:09.597Z,0
2018-05-04T01:20:10.306Z,0
2018-05-04T01:21:11.015Z,0
2018-05-04T01:22:11.742Z,0
2018-05-04T01:23:12.448Z,0
2018-05-04T01:24:13.155Z,0
2018-05-04T01:25:13.860Z,0
2018-05-04T01:26:14.579Z,0
2018-05-04T01:27:15.288Z,0
2018-05-04T01:28:15.994Z,0
2018-05-04T01:29:16.712Z,0
2018-05-04T01:30:17.420Z,0
2018-05-04T01:31:18.129Z,0
2018-05-04T01:32:18.841Z,0
2018-05-04T01:33:19.548Z,0
2018-05-04T01:34:20.254Z,0
2018-05-04T01:35:20.964Z,0
2018-05-04T01:36:21.674Z,0
2018-05-04T01:37:22.385Z,0
2018-05-04T01:38:23.095Z,0
2018-05-04T01:39:23.804Z,0
2018-05-04T01:40:24.513Z,0
2018-05-04T01:41:25.223Z,0
2018-05-04T01:42:25.933Z,0
2018-05-04T01:43:26.642Z,0
2018-05-04T01:44:27.361Z,0
2018-05-04T01:45:28.072Z,0
2018-05-04T01:46:28.780Z,0
2018-05-04T01:47:29.488Z,0
2018-05-04T01:48:30.198Z,0
2018-05-04T01:49:30.907Z,0
2018-05-04T01:50:31.616Z,0
2018-05-04T01:51:32.326Z,0
2018-05-04T01:52:33.032Z,0
2018-05-04T01:53:33.739Z,0
2018-05-04T01:54:34.462Z,0
2018-05-04T01:55:35.172Z,0
2018-05-04T01:56:35.882Z,0
2018-05-04T01:57:36.590Z,0
2018-05-04T01:58:37.298Z,0
2018-05-04T01:59:38.006Z,0
2018-05-04T02:00:38.713Z,0
2018-05-04T02:01:39.421Z,0
2018-05-04T02:02:40.128Z,0
2018-05-04T02:03:40.836Z,0
2018-05-04T02:04:41.546Z,0
2018-05-04T02:05:42.252Z,0
2018-05-04T02:06:42.957Z,0
2018-05-04T02:07:43.699Z,0
2018-05-04T02:08:44.371Z,0
2018-05-04T02:09:45.080Z,0
2018-05-04T02:10:45.790Z,0
2018-05-04T02:11:46.499Z,0
2018-05-04T02:12:47.223Z,0
2018-05-04T02:13:47.930Z,0
2018-05-04T02:14:48.647Z,0
2018-05-04T02:15:49.355Z,0
2018-05-04T02:16:50.062Z,0
2018-05-04T02:17:50.770Z,0
2018-05-04T02:18:51.478Z,0
2018-05-04T02:19:52.189Z,0
2018-05-04T02:20:52.895Z,0
2018-05-04T02:21:53.603Z,0
2018-05-04T02:22:54.312Z,0
2018-05-04T02:23:55.037Z,0
2018-05-04T02:24:55.751Z,0
2018-05-04T02:25:56.460Z,0
2018-05-04T02:26:57.170Z,0
2018-05-04T02:27:57.877Z,0
2018-05-04T02:28:58.596Z,0
2018-05-04T02:29:59.303Z,0
2018-05-04T02:31:00.011Z,0
2018-05-04T02:32:00.719Z,0
2018-05-04T02:33:01.424Z,0
2018-05-04T02:34:02.134Z,0
2018-05-04T02:35:02.849Z,0
2018-05-04T02:36:03.548Z,0
2018-05-04T02:37:04.256Z,0
2018-05-04T02:38:04.978Z,0
2018-05-04T02:39:05.704Z,0
2018-05-04T02:40:06.393Z,0
2018-05-04T02:41:07.101Z,0
2018-05-04T02:42:07.809Z,0
2018-05-04T02:43:08.521Z,0
2018-05-04T02:44:09.236Z,0
2018-05-04T02:45:09.949Z,0
2018-05-04T02:46:10.652Z,0
2018-05-04T02:47:11.360Z,0
2018-05-04T02:48:12.070Z,0
2018-05-04T02:49:12.777Z,0
2018-05-04T02:50:13.498Z,0
2018-05-04T02:51:14.203Z,0
2018-05-04T02:52:14.913Z,0
2018-05-04T02:53:15.621Z,0
2018-05-04T02:54:16.331Z,0
2018-05-04T02:55:17.049Z,0
2018-05-04T02:56:17.764Z,0
2018-05-04T02:57:18.477Z,0
2018-05-04T02:58:19.199Z,0
2018-05-04T02:59:19.909Z,0
2018-05-04T03:00:20.623Z,0
2018-05-04T03:01:21.332Z,0
2018-05-04T03:02:22.040Z,0
2018-05-04T03:03:22.747Z,0
2018-05-04T03:04:23.453Z,0
2018-05-04T03:05:24.173Z,0
2018-05-04T03:06:24.895Z,0
2018-05-04T03:07:25.610Z,0
2018-05-04T03:08:26.324Z,0
2018-05-04T03:09:27.077Z,0
2018-05-04T03:10:27.748Z,0
2018-05-04T03:11:28.467Z,0
2018-05-04T03:12:29.186Z,0
2018-05-04T03:13:29.895Z,0
2018-05-04T03:14:30.617Z,0
2018-05-04T03:15:31.323Z,0
2018-05-04T03:16:32.032Z,0
2018-05-04T03:17:32.740Z,0
2018-05-04T03:18:33.450Z,0
2018-05-04T03:19:34.158Z,0
2018-05-04T03:20:34.864Z,0
2018-05-04T03:21:35.572Z,4
2018-05-04T03:22:36.279Z,4
2018-05-04T03:23:36.997Z,4
2018-05-04T03:24:37.704Z,0
2018-05-04T03:25:38.410Z,4
2018-05-04T03:26:39.119Z,4
2018-05-04T03:27:39.825Z,4
2018-05-04T03:28:40.536Z,4
2018-05-04T03:29:41.253Z,4
2018-05-04T03:30:41.959Z,8
2018-05-04T03:31:42.670Z,8
2018-05-04T03:32:43.386Z,8
2018-05-04T03:33:44.100Z,8
2018-05-04T03:34:44.816Z,12
2018-05-04T03:35:45.525Z,12
2018-05-04T03:36:46.235Z,16
2018-05-04T03:37:46.946Z,16
2018-05-04T03:38:47.657Z,20
2018-05-04T03:39:48.368Z,24
2018-05-04T03:40:49.088Z,28
2018-05-04T03:41:49.807Z,32
2018-05-04T03:42:50.592Z,36
2018-05-04T03:43:51.228Z,40
2018-05-04T03:44:51.937Z,48
2018-05-04T03:45:52.647Z,52
2018-05-04T03:46:53.352Z,60
2018-05-04T03:47:54.069Z,68
2018-05-04T03:48:54.783Z,72
2018-05-04T03:49:55.488Z,80
2018-05-04T03:50:56.196Z,88
2018-05-04T03:51:56.925Z,100
2018-05-04T03:52:57.629Z,108
2018-05-04T03:53:58.342Z,116
2018-05-04T03:54:59.051Z,128
2018-05-04T03:55:59.761Z,140
2018-05-04T03:57:00.470Z,152
2018-05-04T03:58:01.180Z,164
2018-05-04T03:59:01.888Z,180
2018-05-04T04:00:02.600Z,196
2018-05-04T04:01:03.304Z,212
2018-05-04T04:03:17.707Z,248
2018-05-04T04:04:18.417Z,264
2018-05-04T04:05:19.140Z,284
2018-05-04T04:09:16.075Z,364
2018-05-04T04:10:16.790Z,384
2018-05-04T04:11:17.563Z,408
2018-05-04T04:12:18.222Z,428
2018-05-04T04:13:18.928Z,452
2018-05-04T04:14:19.639Z,480
2018-05-04T04:17:37.705Z,560
2018-05-04T04:18:38.415Z,588
2018-05-04T04:19:39.139Z,612
2018-05-04T04:20:39.848Z,640
2018-05-04T04:21:40.560Z,668
2018-05-04T04:22:41.268Z,692
2018-05-04T04:23:41.980Z,720
2018-05-04T04:24:42.689Z,748
2018-05-04T04:25:43.399Z,776
2018-05-04T04:26:44.111Z,804
2018-05-04T04:27:44.821Z,832
2018-05-04T04:28:45.544Z,860
2018-05-04T04:29:46.257Z,888
2018-05-04T04:30:46.971Z,916
2018-05-04T04:31:47.693Z,944
2018-05-04T04:32:48.406Z,972
2018-05-04T04:33:49.117Z,996
2018-05-04T04:34:49.839Z,1024
2018-05-04T04:35:50.553Z,1052
2018-05-04T04:36:51.263Z,1080
2018-05-04T04:37:51.985Z,1108
2018-05-04T04:38:52.757Z,1136
2018-05-04T04:39:53.422Z,1160
2018-05-04T04:40:54.144Z,1188
2018-05-04T04:41:54.859Z,1216
2018-05-04T04:42:55.570Z,1244
2018-05-04T04:43:56.289Z,1272
2018-05-04T04:44:57.000Z,1300
2018-05-04T04:45:57.714Z,1328
2018-05-04T04:46:58.426Z,1352
2018-05-04T04:47:59.151Z,1380
2018-05-04T04:48:59.863Z,1408
2018-05-04T04:50:00.573Z,1428
2018-05-04T04:51:01.285Z,1452
2018-05-04T04:52:01.996Z,1480
2018-05-04T04:53:02.708Z,1504
2018-05-04T04:54:03.420Z,1528
2018-05-04T04:55:04.134Z,1556
2018-05-04T04:56:04.844Z,1580
2018-05-04T04:57:05.555Z,1604
2018-05-04T04:58:06.267Z,1632
2018-05-04T04:59:06.980Z,1656
2018-05-04T05:00:07.692Z,1680
2018-05-04T05:01:08.405Z,1700
2018-05-04T05:02:09.113Z,1728
2018-05-04T05:03:09.831Z,1752
2018-05-04T05:04:10.551Z,1776
2018-05-04T05:05:11.262Z,1804
2018-05-04T05:06:11.974Z,1824
2018-05-04T05:07:12.686Z,1848
2018-05-04T05:08:13.399Z,1876
2018-05-04T05:09:14.122Z,1896
2018-05-04T05:10:14.833Z,1924
2018-05-04T05:11:15.544Z,1948
2018-05-04T05:12:16.269Z,1972
2018-05-04T05:13:16.996Z,2000
2018-05-04T05:14:17.718Z,2028
2018-05-04T05:15:18.438Z,2052
2018-05-04T05:16:19.151Z,2076
2018-05-04T05:17:19.865Z,2096
2018-05-04T05:18:20.577Z,2120
2018-05-04T05:19:21.290Z,2140
2018-05-04T05:20:22.008Z,2164
2018-05-04T05:21:22.722Z,2180
2018-05-04T05:22:23.442Z,2208
2018-05-04T05:23:24.154Z,2228
2018-05-04T05:24:24.880Z,2248
2018-05-04T05:25:25.591Z,2272
2018-05-04T05:26:26.304Z,2296
2018-05-04T05:27:27.025Z,2320
2018-05-04T05:28:27.739Z,2344
2018-05-04T05:29:28.534Z,2364
2018-05-04T05:30:29.165Z,2392
2018-05-04T05:31:29.878Z,2412
2018-05-04T05:32:30.591Z,2436
2018-05-04T05:33:31.304Z,2460
2018-05-04T05:34:32.018Z,2488
2018-05-04T05:35:32.753Z,2512
2018-05-04T05:36:33.448Z,2536
2018-05-04T05:37:34.162Z,2560
2018-05-04T05:38:34.874Z,2580
2018-05-04T05:39:35.586Z,2612
2018-05-04T05:40:36.299Z,2632
2018-05-04T05:41:37.021Z,2660
2018-05-04T05:42:37.745Z,2684
2018-05-04T05:43:38.458Z,2712
2018-05-04T05:44:39.172Z,2736
2018-05-04T05:45:39.901Z,2760
2018-05-04T05:46:40.615Z,2792
2018-05-04T05:47:41.340Z,2824
2018-05-04T05:48:42.054Z,2856
2018-05-04T05:49:42.780Z,2884
2018-05-04T05:50:43.508Z,2912
2018-05-04T05:51:44.226Z,2936
2018-05-04T05:52:44.955Z,2960
2018-05-04T05:53:45.667Z,2980
2018-05-04T05:54:46.384Z,3000
2018-05-04T05:55:47.096Z,3028
2018-05-04T05:56:47.812Z,3048
2018-05-04T05:57:48.527Z,3080
2018-05-04T05:58:49.241Z,3108
2018-05-04T05:59:49.955Z,3132
2018-05-04T06:00:50.672Z,3160
2018-05-04T06:01:51.393Z,3192
2018-05-04T06:02:52.121Z,3220
2018-05-04T06:03:52.834Z,3244
2018-05-04T06:04:53.564Z,3276
2018-05-04T06:05:54.292Z,3304
2018-05-04T06:06:55.005Z,3332
2018-05-04T06:07:55.721Z,3356
2018-05-04T06:08:56.436Z,3388
2018-05-04T06:09:57.152Z,3404
2018-05-04T06:10:57.867Z,3432
2018-05-04T06:11:58.585Z,3452
2018-05-04T06:12:59.313Z,3476
2018-05-04T06:14:00.033Z,3508
2018-05-04T06:15:00.759Z,3536
2018-05-04T06:16:01.467Z,3564
2018-05-04T06:17:02.187Z,3604
2018-05-04T06:18:02.914Z,3624
2018-05-04T06:19:03.641Z,3652
2018-05-04T06:20:04.368Z,3676
2018-05-04T06:21:05.085Z,3700
2018-05-04T06:22:05.799Z,3732
2018-05-04T06:23:06.515Z,3760
2018-05-04T06:24:07.232Z,3796
2018-05-04T06:25:08.037Z,3820
2018-05-04T06:26:08.665Z,3856
2018-05-04T06:27:09.392Z,3888
2018-05-04T06:28:10.109Z,3916
2018-05-04T06:29:10.841Z,3944
2018-05-04T06:30:11.570Z,3972
2018-05-04T06:31:12.288Z,4000
2018-05-04T06:32:12.999Z,4036
2018-05-04T06:33:13.715Z,4064
2018-05-04T06:34:14.431Z,4092
2018-05-04T06:35:15.147Z,4120
2018-05-04T06:36:15.874Z,4152
2018-05-04T06:37:16.605Z,4188
2018-05-04T06:38:17.322Z,4212
2018-05-04T06:39:18.037Z,4240
2018-05-04T06:40:18.755Z,4272
2018-05-04T06:41:19.477Z,4304
2018-05-04T06:42:20.203Z,4332
2018-05-04T06:43:20.921Z,4376
2018-05-04T06:44:21.645Z,4424
2018-05-04T06:45:22.364Z,4476
2018-05-04T06:46:23.080Z,4544
2018-05-04T06:47:23.797Z,4624
2018-05-04T06:48:24.514Z,4716
2018-05-04T06:49:25.237Z,4824
2018-05-04T06:50:25.948Z,4956
2018-05-04T06:51:26.664Z,5104
2018-05-04T06:52:27.381Z,5300
2018-05-04T06:53:28.097Z,5488
2018-05-04T06:54:28.815Z,5688
2018-05-04T06:55:29.534Z,5860
2018-05-04T06:56:30.264Z,6028
2018-05-04T06:57:30.983Z,6164
2018-05-04T06:58:31.702Z,6296
2018-05-04T06:59:32.421Z,6384
2018-05-04T07:01:36.267Z,6560
2018-05-04T07:02:36.987Z,6632
2018-05-04T07:03:37.716Z,6688
2018-05-04T07:04:38.446Z,6748
2018-05-04T07:05:39.166Z,6864
2018-05-04T07:06:39.885Z,6896
2018-05-04T07:07:40.609Z,6968
2018-05-04T07:08:42.138Z,6996
2018-05-04T07:09:42.872Z,7028
2018-05-04T07:10:43.599Z,7064
2018-05-04T07:11:44.314Z,7116
2018-05-04T07:12:45.038Z,7160
2018-05-04T07:13:45.758Z,7236
2018-05-04T07:14:46.491Z,7280
2018-05-04T07:15:47.212Z,7320
2018-05-04T07:16:47.942Z,7408
2018-05-04T07:17:48.667Z,7524
2018-05-04T07:18:49.385Z,7648
2018-05-04T07:19:50.110Z,7608
2018-05-04T07:20:50.838Z,7628
2018-05-04T07:21:51.566Z,7844
2018-05-04T07:22:52.291Z,7832
2018-05-04T07:23:53.062Z,7948
2018-05-04T07:24:53.758Z,7976
2018-05-04T07:25:54.488Z,8132
2018-05-04T07:26:55.228Z,8224
2018-05-04T07:27:55.958Z,8308
2018-05-04T07:28:56.688Z,8444
2018-05-04T07:29:57.415Z,8500
2018-05-04T07:30:58.144Z,8612
2018-05-04T07:31:58.875Z,8652
2018-05-04T07:32:59.619Z,8768
2018-05-04T07:34:00.365Z,8836
2018-05-04T07:35:01.113Z,8936
2018-05-04T07:36:01.935Z,9004
2018-05-04T07:37:02.576Z,9028
2018-05-04T07:38:03.314Z,9160
2018-05-04T07:39:04.044Z,9256
2018-05-04T07:40:04.776Z,9344
2018-05-04T07:41:05.508Z,9532
2018-05-04T07:42:06.241Z,9712
2018-05-04T07:43:07.012Z,9884
2018-05-04T07:44:07.711Z,10072
2018-05-04T07:45:08.447Z,10252
2018-05-04T07:46:09.184Z,10508
2018-05-04T07:47:09.917Z,10804
2018-05-04T07:48:10.654Z,11224
2018-05-04T07:49:11.381Z,11748
2018-05-04T07:50:12.117Z,12588
2018-05-04T07:51:12.849Z,14948
2018-05-04T07:52:13.594Z,30912
2018-05-04T07:53:14.327Z,51904
2018-05-04T07:54:15.060Z,59648
2018-05-04T07:55:15.837Z,63520
2018-05-04T07:56:16.529Z,66688
2018-05-04T07:57:17.259Z,67936
2018-05-04T07:58:17.992Z,69408
2018-05-04T07:59:18.726Z,71072
2018-05-04T08:00:19.477Z,68256
2018-05-04T08:01:20.208Z,67872
2018-05-04T08:02:20.957Z,68288
2018-05-04T08:03:21.688Z,66976
2018-05-04T08:04:22.421Z,66688
2018-05-04T08:05:23.157Z,66560
2018-05-04T08:06:23.904Z,64800
2018-05-04T08:07:24.640Z,62880
2018-05-04T08:08:25.383Z,64928
2018-05-04T08:09:26.108Z,64928
2018-05-04T08:10:26.859Z,66720
2018-05-04T08:11:27.587Z,66720
2018-05-04T08:12:28.337Z,69760
2018-05-04T08:13:29.071Z,71008
2018-05-04T08:14:29.806Z,72704
2018-05-04T08:15:30.538Z,73888
2018-05-04T08:16:31.272Z,74880
2018-05-04T08:17:32.021Z,74176
2018-05-04T08:18:32.754Z,76224
2018-05-04T08:19:33.489Z,76928
2018-05-04T08:20:34.224Z,77152
2018-05-04T08:21:34.958Z,74144
2018-05-04T08:22:35.692Z,74720
2018-05-04T08:23:36.429Z,75040
2018-05-04T08:24:37.165Z,74912
2018-05-04T08:25:37.902Z,68896
2018-05-04T08:26:38.636Z,69376
2018-05-04T08:27:39.388Z,70336
2018-05-04T08:28:40.136Z,73344
2018-05-04T08:29:40.870Z,74528
2018-05-04T08:30:41.607Z,73600
2018-05-04T08:31:42.340Z,74912
2018-05-04T08:32:43.077Z,75264
2018-05-04T08:33:43.815Z,76544
2018-05-04T08:34:44.564Z,75040
2018-05-04T08:35:45.299Z,76096
2018-05-04T08:36:46.034Z,76096
2018-05-04T08:37:46.781Z,76704
2018-05-04T08:38:47.515Z,74368
2018-05-04T08:39:48.253Z,74816
2018-05-04T08:40:49.058Z,70944
2018-05-04T08:41:49.724Z,69632
2018-05-04T08:42:50.532Z,70144
2018-05-04T08:43:51.207Z,69920
2018-05-04T08:44:51.945Z,73216
2018-05-04T08:45:52.692Z,73088
2018-05-04T08:46:53.515Z,74240
2018-05-04T08:47:54.163Z,75264
2018-05-04T08:48:54.913Z,77184
2018-05-04T08:49:55.655Z,79040
2018-05-04T08:50:56.454Z,83552
2018-05-04T08:51:57.123Z,80416
2018-05-04T08:52:57.860Z,81568
2018-05-04T08:53:58.599Z,77632
2018-05-04T08:54:59.332Z,77152
2018-05-04T08:56:00.069Z,77792
2018-05-04T08:57:00.821Z,76800
2018-05-04T08:58:01.561Z,78176
2018-05-04T08:59:02.290Z,78112
2018-05-04T09:00:03.029Z,84512
2018-05-04T09:01:03.765Z,84448
2018-05-04T09:02:04.504Z,81568
2018-05-04T09:03:05.244Z,80608
2018-05-04T09:04:05.985Z,84032
2018-05-04T09:05:06.764Z,83712
2018-05-04T09:06:07.476Z,87712
2018-05-04T09:07:08.218Z,86464
2018-05-04T09:08:08.972Z,89408
2018-05-04T09:09:09.716Z,85600
2018-05-04T09:10:10.449Z,87360
2018-05-04T09:11:11.189Z,88640
2018-05-04T09:12:11.942Z,84608
2018-05-04T09:13:12.686Z,88608
2018-05-04T09:14:13.434Z,85056
2018-05-04T09:15:14.204Z,86432
2018-05-04T09:16:14.940Z,86112
2018-05-04T09:17:15.685Z,83072
2018-05-04T09:18:16.444Z,87520
2018-05-04T09:19:17.188Z,84000
2018-05-04T09:20:17.929Z,80288
2018-05-04T09:21:18.678Z,87584
2018-05-04T09:22:19.425Z,80992
2018-05-04T09:23:20.186Z,86944
2018-05-04T09:24:20.933Z,89632
2018-05-04T09:25:21.705Z,89600
2018-05-04T09:26:22.423Z,87744
2018-05-04T09:27:23.168Z,94720
2018-05-04T09:28:23.928Z,100864
2018-05-04T09:29:24.679Z,95872
2018-05-04T09:30:25.422Z,96544
2018-05-04T09:31:26.185Z,98368
2018-05-04T09:32:26.933Z,100960
2018-05-04T09:33:27.694Z,97152
2018-05-04T09:34:28.451Z,93248
2018-05-04T09:35:29.196Z,91232
2018-05-04T09:36:29.939Z,92736
2018-05-04T09:37:30.683Z,90496
2018-05-04T09:38:31.442Z,91424
2018-05-04T09:39:32.183Z,91328
2018-05-04T09:40:32.927Z,88256
2018-05-04T09:41:33.670Z,93792
2018-05-04T09:42:34.418Z,92992
2018-05-04T09:43:35.205Z,91968
2018-05-04T09:44:35.908Z,94464
2018-05-04T09:45:36.651Z,90240
2018-05-04T09:46:37.398Z,95840
2018-05-04T09:47:38.151Z,92576
2018-05-04T09:48:38.887Z,91680
2018-05-04T09:49:39.641Z,93376
2018-05-04T09:50:40.389Z,92416
2018-05-04T09:51:41.131Z,89504
2018-05-04T09:52:41.874Z,91520
2018-05-04T09:53:42.617Z,86304
2018-05-04T09:54:43.361Z,91616
2018-05-04T09:55:44.106Z,93728
2018-05-04T09:56:44.851Z,89920
2018-05-04T09:57:45.599Z,85792
2018-05-04T09:58:46.396Z,89472
2018-05-04T09:59:47.085Z,86112
2018-05-04T10:00:47.844Z,93280
2018-05-04T10:01:48.600Z,87296
2018-05-04T10:02:49.344Z,87104
2018-05-04T10:03:50.088Z,91104
2018-05-04T10:04:50.831Z,79776
2018-05-04T10:05:51.581Z,95552
2018-05-04T10:06:52.320Z,83584
2018-05-04T10:07:53.074Z,85248
2018-05-04T10:08:53.814Z,89696
2018-05-04T10:09:54.558Z,86080
2018-05-04T10:10:55.304Z,92032
2018-05-04T10:11:56.046Z,90272
2018-05-04T10:12:56.789Z,92512
2018-05-04T10:13:57.532Z,92800
2018-05-04T10:14:58.275Z,94144
2018-05-04T10:15:59.018Z,96448
2018-05-04T10:16:59.760Z,93376
2018-05-04T10:18:00.516Z,85856
2018-05-04T10:19:01.260Z,92128
2018-05-04T10:20:02.007Z,89600
2018-05-04T10:21:02.749Z,89120
2018-05-04T10:22:03.565Z,88544
2018-05-04T10:23:04.233Z,85536
2018-05-04T10:24:04.979Z,88576
2018-05-04T10:25:05.717Z,84736
2018-05-04T10:26:06.460Z,80864
2018-05-04T10:27:07.203Z,79424
2018-05-04T10:28:07.954Z,83104
2018-05-04T10:29:08.700Z,89088
2018-05-04T10:30:09.447Z,84640
2018-05-04T10:31:10.180Z,86400
2018-05-04T10:32:10.921Z,88320
2018-05-04T10:33:11.667Z,86816
2018-05-04T10:34:12.412Z,92448
2018-05-04T10:35:13.161Z,94752
2018-05-04T10:36:13.916Z,90528
2018-05-04T10:37:14.660Z,91520
2018-05-04T10:38:15.416Z,91616
2018-05-04T10:39:16.157Z,95168
2018-05-04T10:40:16.902Z,97280
2018-05-04T10:41:17.644Z,94752
2018-05-04T10:42:18.387Z,94080
2018-05-04T10:43:19.132Z,95104
2018-05-04T10:44:19.876Z,93376
2018-05-04T10:45:20.620Z,86624
2018-05-04T10:46:21.367Z,72448
2018-05-04T10:47:22.109Z,81664
2018-05-04T10:48:22.852Z,84608
2018-05-04T10:49:23.612Z,82976
2018-05-04T10:50:24.355Z,78720
2018-05-04T10:51:25.100Z,77056
2018-05-04T10:52:25.844Z,78976
2018-05-04T10:53:26.588Z,87712
2018-05-04T10:54:27.331Z,95200
2018-05-04T10:55:28.076Z,94720
2018-05-04T10:56:28.815Z,93120
2018-05-04T10:57:29.556Z,96736
2018-05-04T10:58:30.299Z,93216
2018-05-04T10:59:31.043Z,93152
2018-05-04T11:00:31.800Z,93312
2018-05-04T11:01:32.541Z,96032
2018-05-04T11:02:33.284Z,96896
2018-05-04T11:03:34.041Z,96160
2018-05-04T11:04:34.783Z,97824
2018-05-04T11:05:35.526Z,96480
2018-05-04T11:06:36.269Z,99104
2018-05-04T11:07:37.015Z,101984
2018-05-04T11:08:37.761Z,96960
2018-05-04T11:09:38.503Z,97344
2018-05-04T11:10:39.247Z,94176
2018-05-04T11:11:39.991Z,94176
2018-05-04T11:12:40.732Z,98336
2018-05-04T11:13:41.475Z,95072
2018-05-04T11:14:42.220Z,87392
2018-05-04T11:15:42.965Z,90880
2018-05-04T11:16:43.720Z,91520
2018-05-04T11:17:44.459Z,90784
2018-05-04T11:18:45.202Z,92448
2018-05-04T11:19:45.942Z,91712
2018-05-04T11:20:46.683Z,92064
2018-05-04T11:21:47.424Z,92064
2018-05-04T11:22:48.165Z,88064
2018-05-04T11:23:48.907Z,89120
2018-05-04T11:24:49.664Z,91040
2018-05-04T11:25:50.402Z,87776
2018-05-04T11:26:51.144Z,88992
2018-05-04T11:27:51.884Z,91008
2018-05-04T11:28:52.628Z,90144
2018-05-04T11:29:53.371Z,85792
2018-05-04T11:30:54.200Z,88288
2018-05-04T11:31:54.871Z,81984
2018-05-04T11:32:55.616Z,83936
2018-05-04T11:33:56.360Z,87424
2018-05-04T11:34:57.117Z,84352
2018-05-04T11:35:57.863Z,87392
2018-05-04T11:36:58.615Z,89920
2018-05-04T11:37:59.360Z,86144
2018-05-04T11:39:00.137Z,84288
2018-05-04T11:40:00.845Z,86400
2018-05-04T11:41:01.587Z,83616
2018-05-04T11:42:02.329Z,86784
2018-05-04T11:43:03.067Z,86144
2018-05-04T11:44:03.806Z,85312
2018-05-04T11:45:04.547Z,83584
2018-05-04T11:46:05.291Z,83936
2018-05-04T11:47:06.031Z,85216
2018-05-04T11:48:06.782Z,87168
2018-05-04T11:49:07.526Z,89344
2018-05-04T11:50:08.268Z,89280
2018-05-04T11:51:09.007Z,92128
2018-05-04T11:52:09.745Z,88704
2018-05-04T11:53:10.483Z,88448
2018-05-04T11:54:11.225Z,89728
2018-05-04T11:55:11.991Z,88608
2018-05-04T11:56:12.723Z,85376
2018-05-04T11:57:13.463Z,87616
2018-05-04T11:58:14.203Z,90144
2018-05-04T11:59:14.944Z,88256
2018-05-04T12:00:15.682Z,85920
2018-05-04T12:01:16.426Z,89024
2018-05-04T12:02:17.168Z,93824
2018-05-04T12:03:17.908Z,91136
2018-05-04T12:04:18.653Z,85312
2018-05-04T12:05:19.406Z,85888
2018-05-04T12:06:20.147Z,90880
2018-05-04T12:07:20.890Z,91136
2018-05-04T12:08:21.638Z,88064
2018-05-04T12:09:22.387Z,87776
2018-05-04T12:10:23.127Z,88928
2018-05-04T12:11:23.885Z,89792
2018-05-04T12:12:24.628Z,87104
2018-05-04T12:13:25.372Z,88256
2018-05-04T12:14:26.115Z,89504
2018-05-04T12:15:26.854Z,91296
2018-05-04T12:16:27.612Z,87168
2018-05-04T12:17:28.351Z,87392
2018-05-04T12:18:29.099Z,87264
2018-05-04T12:19:29.842Z,86944
2018-05-04T12:20:30.577Z,85856
2018-05-04T12:21:31.318Z,85344
2018-05-04T12:22:32.060Z,89056
2018-05-04T12:23:32.801Z,86976
2018-05-04T12:24:33.544Z,81664
2018-05-04T12:25:34.286Z,79424
2018-05-04T12:26:35.033Z,81024
2018-05-04T12:27:35.787Z,77088
2018-05-04T12:28:36.529Z,68160
2018-05-04T12:29:37.269Z,68672
2018-05-04T12:30:38.035Z,72288
2018-05-04T12:31:38.762Z,74432
2018-05-04T12:32:39.501Z,74272
2018-05-04T12:33:40.243Z,84800
2018-05-04T12:34:40.986Z,87232
2018-05-04T12:35:41.727Z,84992
2018-05-04T12:36:42.471Z,81472
2018-05-04T12:37:43.214Z,81568
2018-05-04T12:38:43.955Z,80768
2018-05-04T12:39:44.699Z,82880
2018-05-04T12:40:45.436Z,82912
2018-05-04T12:41:46.189Z,81792
2018-05-04T12:42:46.931Z,84032
2018-05-04T12:43:47.669Z,79200
2018-05-04T12:44:48.412Z,79680
2018-05-04T12:45:49.153Z,81088
2018-05-04T12:46:49.905Z,77856
2018-05-04T12:47:50.656Z,79904
2018-05-04T12:48:51.399Z,81408
2018-05-04T12:49:52.137Z,75584
2018-05-04T12:50:52.876Z,77888
2018-05-04T12:51:53.615Z,78976
2018-05-04T12:52:54.354Z,75872
2018-05-04T12:53:55.105Z,77472
2018-05-04T12:54:55.846Z,77984
2018-05-04T12:55:56.585Z,77344
2018-05-04T12:56:57.327Z,78432
2018-05-04T12:57:58.065Z,79744
2018-05-04T12:58:58.804Z,77248
2018-05-04T12:59:59.547Z,75232
2018-05-04T13:01:00.291Z,69952
2018-05-04T13:02:01.034Z,66304
2018-05-04T13:03:01.793Z,68000
2018-05-04T13:04:02.548Z,65568
2018-05-04T13:05:03.303Z,66400
2018-05-04T13:06:04.044Z,72608
2018-05-04T13:07:04.789Z,71264
2018-05-04T13:08:05.531Z,72224
2018-05-04T13:09:06.273Z,72864
2018-05-04T13:10:07.016Z,71040
2018-05-04T13:11:07.755Z,72288
2018-05-04T13:12:08.495Z,71680
2018-05-04T13:13:09.251Z,72384
2018-05-04T13:14:09.992Z,72288
2018-05-04T13:15:10.748Z,72128
2018-05-04T13:16:11.490Z,70688
2018-05-04T13:17:12.230Z,71136
2018-05-04T13:18:12.985Z,69984
2018-05-04T13:19:13.725Z,70400
2018-05-04T13:20:14.467Z,70176
2018-05-04T13:21:15.209Z,70624
2018-05-04T13:22:15.951Z,67360
2018-05-04T13:23:16.782Z,70976
2018-05-04T13:24:17.432Z,67968
2018-05-04T13:25:18.174Z,65248
2018-05-04T13:26:18.917Z,63040
2018-05-04T13:27:19.673Z,65856
2018-05-04T13:28:20.397Z,67072
2018-05-04T13:29:21.153Z,65056
2018-05-04T13:30:21.889Z,66464
2018-05-04T13:31:22.642Z,68288
2018-05-04T13:32:23.384Z,63712
2018-05-04T13:33:24.185Z,62944
2018-05-04T13:34:24.879Z,63520
2018-05-04T13:35:25.618Z,62240
2018-05-04T13:36:26.359Z,59008
2018-05-04T13:37:27.102Z,57440
2018-05-04T13:38:27.855Z,58976
2018-05-04T13:39:28.591Z,56736
2018-05-04T13:40:29.336Z,40352
2018-05-04T13:41:30.079Z,22432
2018-05-04T13:42:30.820Z,16040
2018-05-04T13:43:31.562Z,14860
2018-05-04T13:44:32.328Z,14520
2018-05-04T13:45:33.058Z,13920
2018-05-04T13:46:33.798Z,13692